createdAt,value
2022-10-23T00:04:40.693Z,17.24
2022-10-23T00:09:42.881Z,17.25
2022-10-23T00:14:45.139Z,17.37
2022-10-23T00:19:47.383Z,17.38
2022-10-23T00:24:49.835Z,17.32
2022-10-23T00:29:52.072Z,17.20
2022-10-23T00:34:54.413Z,17.30
2022-10-23T00:39:56.685Z,17.25
2022-10-23T00:45:09.300Z,17.18
2022-10-23T00:50:11.611Z,17.24
2022-10-23T00:55:14.675Z,17.26
2022-10-23T01:00:19.405Z,17.31
2022-10-23T01:05:24.422Z,17.26
2022-10-23T01:10:36.971Z,17.22
2022-10-23T01:15:51.050Z,17.15
2022-10-23T01:21:00.384Z,17.11
2022-10-23T01:26:20.273Z,17.06
2022-10-23T01:31:25.877Z,17.02
2022-10-23T01:36:30.793Z,16.98
2022-10-23T01:41:44.521Z,16.97
2022-10-23T01:46:50.522Z,17.01
2022-10-23T01:51:55.196Z,16.88
2022-10-23T01:56:58.644Z,16.90
2022-10-23T02:02:04.743Z,16.88
2022-10-23T02:07:08.562Z,16.80
2022-10-23T02:12:14.197Z,16.71
2022-10-23T02:17:31.688Z,16.75
2022-10-23T02:22:37.633Z,16.70
2022-10-23T02:27:49.128Z,16.72
2022-10-23T02:32:54.972Z,16.71
2022-10-23T02:37:59.292Z,16.89
2022-10-23T02:43:10.438Z,16.64
2022-10-23T02:48:17.404Z,16.62
2022-10-23T02:53:19.704Z,16.72
2022-10-23T02:58:33.329Z,16.63
2022-10-23T03:03:38.268Z,16.54
2022-10-23T03:08:44.375Z,16.44
2022-10-23T03:13:46.692Z,16.47
2022-10-23T03:18:48.891Z,16.49
2022-10-23T03:23:51.181Z,16.41
2022-10-23T03:28:58.619Z,16.40
2022-10-23T03:34:02.246Z,16.48
2022-10-23T03:39:06.460Z,16.38
2022-10-23T03:44:08.745Z,16.37
2022-10-23T03:49:11.057Z,16.31
2022-10-23T03:54:13.270Z,16.40
2022-10-23T03:59:16.472Z,16.39
2022-10-23T04:04:18.882Z,16.36
2022-10-23T04:15:47.915Z,16.28
2022-10-23T04:20:52.684Z,16.24
2022-10-23T04:25:58.205Z,16.19
2022-10-23T04:31:01.340Z,16.17
2022-10-23T04:36:04.043Z,16.21
2022-10-23T04:41:06.437Z,16.11
2022-10-23T04:46:10.765Z,16.05
2022-10-23T04:51:13.016Z,15.97
2022-10-23T04:56:31.812Z,16.03
2022-10-23T05:01:38.640Z,16.04
2022-10-23T05:06:42.917Z,16.07
2022-10-23T05:12:07.040Z,16.07
2022-10-23T05:17:11.376Z,15.97
2022-10-23T05:22:15.279Z,16.00
2022-10-23T05:27:23.320Z,15.94
2022-10-23T05:32:29.090Z,16.00
2022-10-23T05:37:31.507Z,16.04
2022-10-23T05:42:47.836Z,16.15
2022-10-23T05:47:53.905Z,16.20
2022-10-23T05:53:37.349Z,16.55
2022-10-23T05:58:50.307Z,16.56
2022-10-23T06:04:05.172Z,16.66
2022-10-23T06:09:26.342Z,16.80
2022-10-23T06:14:32.749Z,16.87
2022-10-23T06:19:35.179Z,17.12
2022-10-23T06:24:37.517Z,17.10
2022-10-23T06:29:45.635Z,17.10
2022-10-23T06:34:48.074Z,17.31
2022-10-23T06:39:50.366Z,17.64
2022-10-23T06:45:04.914Z,17.85
2022-10-23T06:50:31.174Z,18.20
2022-10-23T06:55:35.875Z,18.63
2022-10-23T07:00:38.966Z,19.13
2022-10-23T07:05:44.868Z,19.28
2022-10-23T07:10:48.916Z,19.34
2022-10-23T07:15:53.832Z,19.29
2022-10-23T07:20:59.863Z,19.35
2022-10-23T07:26:08.557Z,19.36
2022-10-23T07:31:12.083Z,19.69
2022-10-23T07:36:32.868Z,19.67
2022-10-23T07:41:35.308Z,19.68
2022-10-23T07:46:37.659Z,19.85
2022-10-23T07:51:40.350Z,19.77
2022-10-23T07:56:43.709Z,19.83
2022-10-23T08:01:56.867Z,19.68
2022-10-23T08:07:11.905Z,19.64
2022-10-23T08:12:17.830Z,19.70
2022-10-23T08:17:21.037Z,19.70
2022-10-23T08:22:29.853Z,19.51
2022-10-23T08:27:32.705Z,19.93
2022-10-23T08:32:35.049Z,20.09
2022-10-23T08:37:38.431Z,20.25
2022-10-23T08:42:44.587Z,20.21
2022-10-23T08:47:50.929Z,20.05
2022-10-23T08:53:17.581Z,20.20
2022-10-23T08:58:25.695Z,20.23
2022-10-23T09:03:27.968Z,20.31
2022-10-23T09:08:30.194Z,20.48
2022-10-23T09:13:51.091Z,20.59
2022-10-23T09:18:54.309Z,20.77
2022-10-23T09:23:56.639Z,20.80
2022-10-23T09:29:07.475Z,20.80
2022-10-23T09:34:18.157Z,20.92
2022-10-23T09:39:26.454Z,21.03
2022-10-23T09:44:29.948Z,21.03
2022-10-23T09:49:34.146Z,20.95
2022-10-23T09:54:44.413Z,20.81
2022-10-23T09:59:51.365Z,21.03
2022-10-23T10:04:53.551Z,21.08
2022-10-23T10:09:57.682Z,20.98
2022-10-23T10:15:02.592Z,21.21
2022-10-23T10:20:10.852Z,21.09
2022-10-23T10:25:28.698Z,21.24
2022-10-23T10:30:41.149Z,21.42
2022-10-23T10:35:43.320Z,21.45
2022-10-23T10:41:05.745Z,21.45
2022-10-23T10:46:31.261Z,21.49
2022-10-23T10:51:39.059Z,21.44
2022-10-23T10:56:43.227Z,21.63
2022-10-23T11:02:04.723Z,21.69
2022-10-23T11:07:13.313Z,21.73
2022-10-23T11:12:18.000Z,21.77
2022-10-23T11:17:49.714Z,21.83
2022-10-23T11:22:54.994Z,21.88
2022-10-23T11:28:03.631Z,21.82
2022-10-23T11:33:28.222Z,21.92
2022-10-23T11:38:33.291Z,21.87
2022-10-23T11:43:47.278Z,21.98
2022-10-23T11:48:49.776Z,22.14
2022-10-23T11:53:51.988Z,22.14
2022-10-23T11:58:58.762Z,22.14
2022-10-23T12:04:15.695Z,22.36
2022-10-23T12:09:29.902Z,22.21
2022-10-23T12:14:46.840Z,22.29
2022-10-23T12:19:50.243Z,22.26
2022-10-23T12:24:55.533Z,22.29
2022-10-23T12:30:14.481Z,22.25
2022-10-23T12:35:35.544Z,22.19
2022-10-23T12:40:37.799Z,22.36
2022-10-23T12:45:40.783Z,22.54
2022-10-23T12:50:47.877Z,22.63
2022-10-23T12:55:53.691Z,22.77
2022-10-23T13:00:57.756Z,22.71
2022-10-23T13:06:04.318Z,22.86
2022-10-23T13:11:06.884Z,22.82
2022-10-23T13:16:14.437Z,22.79
2022-10-23T13:21:21.607Z,22.83
2022-10-23T13:26:25.663Z,22.74
2022-10-23T13:31:30.330Z,22.88
2022-10-23T13:36:35.496Z,22.78
2022-10-23T13:41:45.667Z,22.70
2022-10-23T13:46:48.549Z,22.66
2022-10-23T13:51:52.016Z,22.69
2022-10-23T13:56:54.674Z,22.63
2022-10-23T14:06:42.236Z,22.68
2022-10-23T14:11:44.935Z,22.58
2022-10-23T14:16:47.050Z,22.56
2022-10-23T14:21:49.215Z,22.05
2022-10-23T14:26:53.233Z,22.03
2022-10-23T14:31:55.391Z,21.81
2022-10-23T14:37:08.185Z,21.67
2022-10-23T14:42:11.560Z,21.53
2022-10-23T14:47:13.656Z,21.36
2022-10-23T14:52:15.898Z,21.27
2022-10-23T14:57:20.993Z,21.18
2022-10-23T15:02:23.115Z,21.06
2022-10-23T15:07:25.325Z,20.91
2022-10-23T15:12:27.537Z,21.14
2022-10-23T15:17:29.794Z,21.07
2022-10-23T15:22:32.001Z,20.63
2022-10-23T15:27:34.168Z,20.57
2022-10-23T15:32:36.412Z,20.48
2022-10-23T15:37:38.606Z,20.34
2022-10-23T15:42:42.129Z,20.23
2022-10-23T15:47:44.829Z,20.14
2022-10-23T15:52:47.238Z,20.01
2022-10-23T15:57:49.485Z,19.91
2022-10-23T16:02:52.913Z,19.85
2022-10-23T16:07:55.160Z,19.76
2022-10-23T16:12:57.385Z,19.60
2022-10-23T16:17:59.543Z,19.51
2022-10-23T16:23:03.821Z,19.33
2022-10-23T16:28:06.894Z,19.21
2022-10-23T16:33:10.045Z,19.02
2022-10-23T16:38:12.192Z,19.02
2022-10-23T16:43:14.465Z,18.88
2022-10-23T16:48:20.945Z,18.79
2022-10-23T16:53:24.687Z,18.72
2022-10-23T16:58:27.262Z,18.68
2022-10-23T17:03:30.324Z,18.60
2022-10-23T17:08:32.532Z,18.53
2022-10-23T17:13:36.422Z,18.48
2022-10-23T17:18:42.850Z,18.49
2022-10-23T17:23:47.391Z,18.42
2022-10-23T17:28:49.731Z,18.36
2022-10-23T17:33:53.474Z,18.35
2022-10-23T17:38:55.687Z,18.33
2022-10-23T17:43:58.872Z,18.25
2022-10-23T17:54:08.532Z,18.10
2022-10-23T17:59:14.778Z,18.12
2022-10-23T18:04:18.390Z,18.11
2022-10-23T18:09:21.619Z,18.07
2022-10-23T18:14:26.130Z,17.98
2022-10-23T18:19:30.812Z,17.80
2022-10-23T18:24:33.454Z,17.90
2022-10-23T18:29:37.975Z,17.79
2022-10-23T18:34:40.213Z,17.81
2022-10-23T18:39:43.271Z,17.76
2022-10-23T18:44:49.959Z,17.80
2022-10-23T18:49:52.201Z,17.78
2022-10-23T18:54:54.370Z,17.74
2022-10-23T18:59:56.595Z,17.71
2022-10-23T19:04:58.841Z,17.73
2022-10-23T19:10:02.569Z,17.72
2022-10-23T19:15:04.926Z,17.60
2022-10-23T19:20:10.951Z,17.61
2022-10-23T19:25:26.953Z,17.61
2022-10-23T19:30:29.398Z,17.42
2022-10-23T19:35:31.541Z,17.46
2022-10-23T19:40:33.761Z,17.43
2022-10-23T19:45:36.064Z,17.38
2022-10-23T19:50:38.281Z,17.34
2022-10-23T19:55:40.532Z,17.30
2022-10-23T20:00:42.723Z,17.01
2022-10-23T20:05:45.784Z,17.16
2022-10-23T20:10:48.065Z,17.15
2022-10-23T20:15:50.345Z,17.12
2022-10-23T20:20:53.234Z,17.08
2022-10-23T20:25:55.375Z,17.09
2022-10-23T20:30:57.595Z,17.10
2022-10-23T20:35:59.950Z,16.97
2022-10-23T20:41:05.821Z,17.02
2022-10-23T20:46:08.959Z,17.04
2022-10-23T20:51:12.792Z,17.00
2022-10-23T20:56:16.839Z,17.09
2022-10-23T21:01:19.388Z,17.09
2022-10-23T21:06:21.885Z,17.11
2022-10-23T21:11:24.876Z,17.18
2022-10-23T21:16:28.947Z,17.17
2022-10-23T21:21:33.134Z,17.13
2022-10-23T21:26:35.432Z,17.09
2022-10-23T21:31:37.557Z,17.15
2022-10-23T21:37:00.175Z,17.19
2022-10-23T21:42:01.983Z,17.07
2022-10-23T21:47:04.249Z,17.05
2022-10-23T21:52:06.729Z,17.02
2022-10-23T21:57:12.886Z,16.96
2022-10-23T22:02:15.129Z,16.91
2022-10-23T22:07:18.510Z,16.93
2022-10-23T22:12:20.734Z,16.87
2022-10-23T22:17:22.904Z,16.80
2022-10-23T22:22:25.156Z,16.69
2022-10-23T22:27:27.927Z,16.76
2022-10-23T22:32:30.248Z,16.67
2022-10-23T22:37:32.433Z,16.62
2022-10-23T22:42:34.665Z,16.62
2022-10-23T22:47:36.838Z,16.59
2022-10-23T22:52:39.071Z,16.60
2022-10-23T22:57:41.365Z,16.56
2022-10-23T23:02:43.741Z,16.56
2022-10-23T23:07:46.141Z,16.42
2022-10-23T23:12:50.629Z,16.37
2022-10-23T23:17:52.757Z,16.40
2022-10-23T23:22:54.977Z,16.40
2022-10-23T23:27:57.708Z,16.40
2022-10-23T23:32:59.863Z,16.38
2022-10-23T23:38:02.015Z,16.36
2022-10-23T23:43:04.563Z,16.39
2022-10-23T23:48:06.859Z,16.27
2022-10-23T23:53:09.119Z,16.30
2022-10-23T23:58:12.063Z,16.33
